sensor_id;sensor_type;location;lat;lon;timestamp;P1;durP1;ratioP1;P2;durP2;ratioP2
12493;SDS011;8260;51.422;6.786;2022-10-16T00:00:57;8.02;;;4.88;;
12493;SDS011;8260;51.422;6.786;2022-10-16T00:03:26;7.85;;;4.93;;
12493;SDS011;8260;51.422;6.786;2022-10-16T00:05:58;7.53;;;5.85;;
12493;SDS011;8260;51.422;6.786;2022-10-16T00:08:28;5.45;;;4.93;;
12493;SDS011;8260;51.422;6.786;2022-10-16T00:11:00;7.93;;;5.43;;
12493;SDS011;8260;51.422;6.786;2022-10-16T00:13:29;5.50;;;4.93;;
12493;SDS011;8260;51.422;6.786;2022-10-16T00:15:57;8.88;;;5.72;;
12493;SDS011;8260;51.422;6.786;2022-10-16T00:18:26;7.07;;;5.18;;
12493;SDS011;8260;51.422;6.786;2022-10-16T00:20:55;10.48;;;5.28;;
12493;SDS011;8260;51.422;6.786;2022-10-16T00:23:23;7.03;;;5.72;;
12493;SDS011;8260;51.422;6.786;2022-10-16T00:25:56;9.55;;;5.10;;
12493;SDS011;8260;51.422;6.786;2022-10-16T00:28:25;7.45;;;5.60;;
12493;SDS011;8260;51.422;6.786;2022-10-16T00:30:53;6.88;;;5.20;;
12493;SDS011;8260;51.422;6.786;2022-10-16T00:33:22;6.43;;;5.30;;
12493;SDS011;8260;51.422;6.786;2022-10-16T00:35:50;10.20;;;5.85;;
12493;SDS011;8260;51.422;6.786;2022-10-16T00:38:18;7.53;;;5.68;;
12493;SDS011;8260;51.422;6.786;2022-10-16T00:40:47;6.47;;;5.85;;
12493;SDS011;8260;51.422;6.786;2022-10-16T00:46:00;9.82;;;6.47;;
12493;SDS011;8260;51.422;6.786;2022-10-16T00:48:28;8.57;;;6.13;;
12493;SDS011;8260;51.422;6.786;2022-10-16T00:50:57;9.68;;;5.88;;
12493;SDS011;8260;51.422;6.786;2022-10-16T00:53:26;9.80;;;6.03;;
12493;SDS011;8260;51.422;6.786;2022-10-16T00:55:55;11.93;;;6.28;;
12493;SDS011;8260;51.422;6.786;2022-10-16T00:58:23;9.55;;;7.20;;
12493;SDS011;8260;51.422;6.786;2022-10-16T01:00:52;7.68;;;6.10;;
12493;SDS011;8260;51.422;6.786;2022-10-16T01:03:26;9.02;;;6.53;;
12493;SDS011;8260;51.422;6.786;2022-10-16T01:05:58;8.65;;;7.63;;
12493;SDS011;8260;51.422;6.786;2022-10-16T01:08:30;13.15;;;8.05;;
12493;SDS011;8260;51.422;6.786;2022-10-16T01:11:01;10.52;;;7.55;;
12493;SDS011;8260;51.422;6.786;2022-10-16T01:13:33;8.27;;;7.15;;
12493;SDS011;8260;51.422;6.786;2022-10-16T01:16:05;8.60;;;7.50;;
12493;SDS011;8260;51.422;6.786;2022-10-16T01:18:37;11.80;;;8.48;;
12493;SDS011;8260;51.422;6.786;2022-10-16T01:21:07;10.45;;;8.35;;
12493;SDS011;8260;51.422;6.786;2022-10-16T01:23:37;9.98;;;7.35;;
12493;SDS011;8260;51.422;6.786;2022-10-16T01:26:20;9.68;;;7.70;;
12493;SDS011;8260;51.422;6.786;2022-10-16T01:28:54;9.98;;;7.63;;
12493;SDS011;8260;51.422;6.786;2022-10-16T01:31:24;9.40;;;7.30;;
12493;SDS011;8260;51.422;6.786;2022-10-16T01:33:56;8.10;;;6.90;;
12493;SDS011;8260;51.422;6.786;2022-10-16T01:36:26;8.88;;;7.25;;
12493;SDS011;8260;51.422;6.786;2022-10-16T01:38:55;8.65;;;6.50;;
12493;SDS011;8260;51.422;6.786;2022-10-16T01:41:25;8.00;;;5.85;;
12493;SDS011;8260;51.422;6.786;2022-10-16T01:43:57;10.45;;;6.22;;
12493;SDS011;8260;51.422;6.786;2022-10-16T01:46:27;9.38;;;7.30;;
12493;SDS011;8260;51.422;6.786;2022-10-16T01:48:56;8.57;;;7.18;;
12493;SDS011;8260;51.422;6.786;2022-10-16T01:51:25;11.55;;;7.90;;
12493;SDS011;8260;51.422;6.786;2022-10-16T01:53:55;11.55;;;8.23;;
12493;SDS011;8260;51.422;6.786;2022-10-16T01:56:25;12.23;;;8.27;;
12493;SDS011;8260;51.422;6.786;2022-10-16T01:58:54;8.77;;;7.60;;
12493;SDS011;8260;51.422;6.786;2022-10-16T02:01:25;11.98;;;8.13;;
12493;SDS011;8260;51.422;6.786;2022-10-16T02:03:54;12.90;;;7.70;;
12493;SDS011;8260;51.422;6.786;2022-10-16T02:06:25;10.55;;;6.78;;
12493;SDS011;8260;51.422;6.786;2022-10-16T02:08:53;11.55;;;6.28;;
12493;SDS011;8260;51.422;6.786;2022-10-16T02:11:21;7.97;;;5.43;;
12493;SDS011;8260;51.422;6.786;2022-10-16T02:13:51;8.63;;;5.05;;
12493;SDS011;8260;51.422;6.786;2022-10-16T02:16:23;5.72;;;5.00;;
12493;SDS011;8260;51.422;6.786;2022-10-16T02:18:56;6.25;;;4.35;;
12493;SDS011;8260;51.422;6.786;2022-10-16T02:21:25;6.55;;;3.92;;
12493;SDS011;8260;51.422;6.786;2022-10-16T02:23:55;4.25;;;3.85;;
12493;SDS011;8260;51.422;6.786;2022-10-16T02:26:27;5.22;;;3.47;;
12493;SDS011;8260;51.422;6.786;2022-10-16T02:28:58;3.63;;;3.20;;
12493;SDS011;8260;51.422;6.786;2022-10-16T02:31:28;4.10;;;3.42;;
12493;SDS011;8260;51.422;6.786;2022-10-16T02:34:01;6.05;;;3.33;;
12493;SDS011;8260;51.422;6.786;2022-10-16T02:36:31;4.25;;;3.05;;
12493;SDS011;8260;51.422;6.786;2022-10-16T02:39:00;4.07;;;3.40;;
12493;SDS011;8260;51.422;6.786;2022-10-16T02:41:30;5.55;;;3.30;;
12493;SDS011;8260;51.422;6.786;2022-10-16T02:43:58;4.32;;;3.22;;
12493;SDS011;8260;51.422;6.786;2022-10-16T02:46:26;5.63;;;3.22;;
12493;SDS011;8260;51.422;6.786;2022-10-16T02:48:55;4.80;;;3.20;;
12493;SDS011;8260;51.422;6.786;2022-10-16T02:51:25;5.60;;;3.75;;
12493;SDS011;8260;51.422;6.786;2022-10-16T02:53:53;3.30;;;2.95;;
12493;SDS011;8260;51.422;6.786;2022-10-16T02:56:21;3.30;;;3.00;;
12493;SDS011;8260;51.422;6.786;2022-10-16T02:58:50;5.22;;;2.92;;
12493;SDS011;8260;51.422;6.786;2022-10-16T03:01:18;3.30;;;3.00;;
12493;SDS011;8260;51.422;6.786;2022-10-16T03:03:46;3.67;;;3.08;;
12493;SDS011;8260;51.422;6.786;2022-10-16T03:06:15;4.38;;;3.08;;
12493;SDS011;8260;51.422;6.786;2022-10-16T03:08:45;5.45;;;3.13;;
12493;SDS011;8260;51.422;6.786;2022-10-16T03:11:13;3.92;;;3.03;;
12493;SDS011;8260;51.422;6.786;2022-10-16T03:13:41;3.65;;;2.78;;
12493;SDS011;8260;51.422;6.786;2022-10-16T03:16:10;3.47;;;3.15;;
12493;SDS011;8260;51.422;6.786;2022-10-16T03:18:38;4.78;;;3.30;;
12493;SDS011;8260;51.422;6.786;2022-10-16T03:21:07;4.68;;;2.88;;
12493;SDS011;8260;51.422;6.786;2022-10-16T03:23:35;5.75;;;2.90;;
12493;SDS011;8260;51.422;6.786;2022-10-16T03:26:05;3.83;;;2.67;;
12493;SDS011;8260;51.422;6.786;2022-10-16T03:28:33;3.92;;;2.78;;
12493;SDS011;8260;51.422;6.786;2022-10-16T03:31:02;3.55;;;2.83;;
12493;SDS011;8260;51.422;6.786;2022-10-16T03:33:30;5.63;;;3.42;;
12493;SDS011;8260;51.422;6.786;2022-10-16T03:35:58;2.88;;;2.33;;
12493;SDS011;8260;51.422;6.786;2022-10-16T03:38:27;2.88;;;2.67;;
12493;SDS011;8260;51.422;6.786;2022-10-16T03:40:55;2.58;;;2.38;;
12493;SDS011;8260;51.422;6.786;2022-10-16T03:43:25;3.70;;;2.47;;
12493;SDS011;8260;51.422;6.786;2022-10-16T03:45:53;3.25;;;2.53;;
12493;SDS011;8260;51.422;6.786;2022-10-16T03:48:22;2.50;;;2.30;;
12493;SDS011;8260;51.422;6.786;2022-10-16T03:50:50;3.67;;;2.72;;
12493;SDS011;8260;51.422;6.786;2022-10-16T03:53:18;4.22;;;2.38;;
12493;SDS011;8260;51.422;6.786;2022-10-16T03:55:47;2.95;;;2.47;;
12493;SDS011;8260;51.422;6.786;2022-10-16T03:58:15;4.25;;;2.50;;
12493;SDS011;8260;51.422;6.786;2022-10-16T04:00:45;3.97;;;2.70;;
12493;SDS011;8260;51.422;6.786;2022-10-16T04:03:14;4.40;;;2.30;;
12493;SDS011;8260;51.422;6.786;2022-10-16T04:05:45;3.22;;;2.58;;
12493;SDS011;8260;51.422;6.786;2022-10-16T04:08:13;3.22;;;2.35;;
12493;SDS011;8260;51.422;6.786;2022-10-16T04:10:42;3.25;;;2.30;;
12493;SDS011;8260;51.422;6.786;2022-10-16T04:13:10;2.40;;;2.20;;
12493;SDS011;8260;51.422;6.786;2022-10-16T04:15:38;2.40;;;2.20;;
12493;SDS011;8260;51.422;6.786;2022-10-16T04:18:08;4.20;;;2.10;;
12493;SDS011;8260;51.422;6.786;2022-10-16T04:20:37;2.20;;;2.00;;
12493;SDS011;8260;51.422;6.786;2022-10-16T04:23:05;4.18;;;2.20;;
12493;SDS011;8260;51.422;6.786;2022-10-16T04:25:33;2.30;;;1.80;;
12493;SDS011;8260;51.422;6.786;2022-10-16T04:28:02;2.88;;;2.40;;
12493;SDS011;8260;51.422;6.786;2022-10-16T04:30:30;3.58;;;2.30;;
12493;SDS011;8260;51.422;6.786;2022-10-16T04:32:59;3.08;;;2.40;;
12493;SDS011;8260;51.422;6.786;2022-10-16T04:35:29;3.40;;;2.42;;
12493;SDS011;8260;51.422;6.786;2022-10-16T04:37:57;4.20;;;2.08;;
12493;SDS011;8260;51.422;6.786;2022-10-16T04:40:26;4.28;;;2.30;;
12493;SDS011;8260;51.422;6.786;2022-10-16T04:42:54;3.47;;;2.20;;
12493;SDS011;8260;51.422;6.786;2022-10-16T04:45:23;2.67;;;2.40;;
12493;SDS011;8260;51.422;6.786;2022-10-16T04:47:51;4.63;;;2.40;;
12493;SDS011;8260;51.422;6.786;2022-10-16T04:50:19;2.35;;;2.10;;
12493;SDS011;8260;51.422;6.786;2022-10-16T04:52:49;3.17;;;2.83;;
12493;SDS011;8260;51.422;6.786;2022-10-16T04:55:17;4.85;;;2.50;;
12493;SDS011;8260;51.422;6.786;2022-10-16T04:57:46;6.35;;;2.78;;
12493;SDS011;8260;51.422;6.786;2022-10-16T05:00:14;2.60;;;2.40;;
12493;SDS011;8260;51.422;6.786;2022-10-16T05:02:43;3.90;;;2.22;;
12493;SDS011;8260;51.422;6.786;2022-10-16T05:05:11;3.85;;;2.33;;
12493;SDS011;8260;51.422;6.786;2022-10-16T05:07:40;3.95;;;2.63;;
12493;SDS011;8260;51.422;6.786;2022-10-16T05:10:10;3.72;;;2.53;;
12493;SDS011;8260;51.422;6.786;2022-10-16T05:12:39;2.75;;;2.28;;
12493;SDS011;8260;51.422;6.786;2022-10-16T05:15:08;2.70;;;2.30;;
12493;SDS011;8260;51.422;6.786;2022-10-16T05:17:36;3.90;;;2.28;;
12493;SDS011;8260;51.422;6.786;2022-10-16T05:20:09;2.78;;;2.22;;
12493;SDS011;8260;51.422;6.786;2022-10-16T05:22:38;2.47;;;2.28;;
12493;SDS011;8260;51.422;6.786;2022-10-16T05:25:07;4.50;;;2.13;;
12493;SDS011;8260;51.422;6.786;2022-10-16T05:27:37;3.67;;;2.40;;
12493;SDS011;8260;51.422;6.786;2022-10-16T05:30:06;4.93;;;2.35;;
12493;SDS011;8260;51.422;6.786;2022-10-16T05:32:37;2.90;;;2.45;;
12493;SDS011;8260;51.422;6.786;2022-10-16T05:35:06;3.17;;;2.40;;
12493;SDS011;8260;51.422;6.786;2022-10-16T05:37:38;2.63;;;2.30;;
12493;SDS011;8260;51.422;6.786;2022-10-16T05:40:06;5.00;;;2.28;;
12493;SDS011;8260;51.422;6.786;2022-10-16T05:42:36;3.10;;;2.30;;
12493;SDS011;8260;51.422;6.786;2022-10-16T05:45:06;3.28;;;2.35;;
12493;SDS011;8260;51.422;6.786;2022-10-16T05:47:34;3.50;;;2.63;;
12493;SDS011;8260;51.422;6.786;2022-10-16T05:50:03;3.17;;;2.38;;
12493;SDS011;8260;51.422;6.786;2022-10-16T05:52:31;3.30;;;2.85;;
12493;SDS011;8260;51.422;6.786;2022-10-16T05:55:00;3.78;;;2.25;;
12493;SDS011;8260;51.422;6.786;2022-10-16T05:57:28;3.45;;;2.50;;
12493;SDS011;8260;51.422;6.786;2022-10-16T05:59:58;3.85;;;2.70;;
12493;SDS011;8260;51.422;6.786;2022-10-16T06:02:27;2.70;;;2.30;;
12493;SDS011;8260;51.422;6.786;2022-10-16T06:04:55;4.53;;;2.70;;
12493;SDS011;8260;51.422;6.786;2022-10-16T06:07:23;2.85;;;2.45;;
12493;SDS011;8260;51.422;6.786;2022-10-16T06:09:52;4.25;;;2.60;;
12493;SDS011;8260;51.422;6.786;2022-10-16T06:12:21;5.22;;;2.72;;
12493;SDS011;8260;51.422;6.786;2022-10-16T06:14:49;2.30;;;2.10;;
12493;SDS011;8260;51.422;6.786;2022-10-16T06:17:19;5.90;;;2.83;;
12493;SDS011;8260;51.422;6.786;2022-10-16T06:19:47;3.25;;;2.50;;
12493;SDS011;8260;51.422;6.786;2022-10-16T06:22:16;2.92;;;2.30;;
12493;SDS011;8260;51.422;6.786;2022-10-16T06:24:44;4.72;;;2.60;;
12493;SDS011;8260;51.422;6.786;2022-10-16T06:27:13;3.38;;;2.65;;
12493;SDS011;8260;51.422;6.786;2022-10-16T06:29:42;2.85;;;2.65;;
12493;SDS011;8260;51.422;6.786;2022-10-16T06:32:11;2.60;;;2.40;;
12493;SDS011;8260;51.422;6.786;2022-10-16T06:34:44;3.15;;;2.88;;
12493;SDS011;8260;51.422;6.786;2022-10-16T06:37:12;4.07;;;2.63;;
12493;SDS011;8260;51.422;6.786;2022-10-16T06:39:40;3.45;;;2.45;;
12493;SDS011;8260;51.422;6.786;2022-10-16T06:42:09;4.55;;;2.80;;
12493;SDS011;8260;51.422;6.786;2022-10-16T06:44:37;3.35;;;2.35;;
12493;SDS011;8260;51.422;6.786;2022-10-16T06:47:06;4.68;;;2.47;;
12493;SDS011;8260;51.422;6.786;2022-10-16T06:49:34;3.28;;;2.88;;
12493;SDS011;8260;51.422;6.786;2022-10-16T06:52:04;2.88;;;2.60;;
12493;SDS011;8260;51.422;6.786;2022-10-16T06:54:32;3.25;;;2.70;;
12493;SDS011;8260;51.422;6.786;2022-10-16T06:57:07;3.90;;;2.55;;
12493;SDS011;8260;51.422;6.786;2022-10-16T06:59:36;3.58;;;2.55;;
12493;SDS011;8260;51.422;6.786;2022-10-16T07:02:04;3.33;;;2.80;;
12493;SDS011;8260;51.422;6.786;2022-10-16T07:04:33;2.92;;;2.70;;
12493;SDS011;8260;51.422;6.786;2022-10-16T07:07:01;3.50;;;2.35;;
12493;SDS011;8260;51.422;6.786;2022-10-16T07:09:35;3.45;;;2.67;;
12493;SDS011;8260;51.422;6.786;2022-10-16T07:12:04;6.75;;;2.60;;
12493;SDS011;8260;51.422;6.786;2022-10-16T07:14:32;2.58;;;2.38;;
12493;SDS011;8260;51.422;6.786;2022-10-16T07:17:01;2.58;;;2.38;;
12493;SDS011;8260;51.422;6.786;2022-10-16T07:19:30;3.38;;;2.53;;
12493;SDS011;8260;51.422;6.786;2022-10-16T07:21:59;4.32;;;2.80;;
12493;SDS011;8260;51.422;6.786;2022-10-16T07:24:29;5.07;;;2.97;;
12493;SDS011;8260;51.422;6.786;2022-10-16T07:26:59;5.20;;;2.42;;
12493;SDS011;8260;51.422;6.786;2022-10-16T07:29:27;3.67;;;2.80;;
12493;SDS011;8260;51.422;6.786;2022-10-16T07:31:55;3.63;;;2.55;;
12493;SDS011;8260;51.422;6.786;2022-10-16T07:34:24;2.75;;;2.55;;
12493;SDS011;8260;51.422;6.786;2022-10-16T07:36:52;2.55;;;2.35;;
12493;SDS011;8260;51.422;6.786;2022-10-16T07:39:21;4.15;;;2.88;;
12493;SDS011;8260;51.422;6.786;2022-10-16T07:41:49;4.35;;;3.00;;
12493;SDS011;8260;51.422;6.786;2022-10-16T07:44:19;4.35;;;2.63;;
12493;SDS011;8260;51.422;6.786;2022-10-16T07:46:47;3.00;;;2.70;;
12493;SDS011;8260;51.422;6.786;2022-10-16T07:49:16;3.17;;;2.60;;
12493;SDS011;8260;51.422;6.786;2022-10-16T07:51:44;2.72;;;2.53;;
12493;SDS011;8260;51.422;6.786;2022-10-16T07:54:12;3.08;;;2.67;;
12493;SDS011;8260;51.422;6.786;2022-10-16T07:56:41;3.45;;;2.38;;
12493;SDS011;8260;51.422;6.786;2022-10-16T07:59:09;2.95;;;2.38;;
12493;SDS011;8260;51.422;6.786;2022-10-16T08:01:39;3.22;;;2.30;;
12493;SDS011;8260;51.422;6.786;2022-10-16T08:04:09;2.65;;;2.45;;
12493;SDS011;8260;51.422;6.786;2022-10-16T08:06:38;4.68;;;2.33;;
12493;SDS011;8260;51.422;6.786;2022-10-16T08:09:07;2.40;;;2.20;;
12493;SDS011;8260;51.422;6.786;2022-10-16T08:11:36;3.42;;;2.33;;
12493;SDS011;8260;51.422;6.786;2022-10-16T08:14:04;3.25;;;1.90;;
12493;SDS011;8260;51.422;6.786;2022-10-16T08:16:33;4.13;;;2.10;;
12493;SDS011;8260;51.422;6.786;2022-10-16T08:19:03;3.95;;;2.17;;
12493;SDS011;8260;51.422;6.786;2022-10-16T08:21:31;2.47;;;2.13;;
12493;SDS011;8260;51.422;6.786;2022-10-16T08:24:00;3.60;;;2.25;;
12493;SDS011;8260;51.422;6.786;2022-10-16T08:26:28;4.20;;;2.35;;
12493;SDS011;8260;51.422;6.786;2022-10-16T08:28:57;4.53;;;2.65;;
12493;SDS011;8260;51.422;6.786;2022-10-16T08:31:25;6.40;;;2.97;;
12493;SDS011;8260;51.422;6.786;2022-10-16T08:33:54;3.63;;;2.15;;
12493;SDS011;8260;51.422;6.786;2022-10-16T08:36:23;3.80;;;2.70;;
12493;SDS011;8260;51.422;6.786;2022-10-16T08:38:52;2.88;;;2.30;;
12493;SDS011;8260;51.422;6.786;2022-10-16T08:41:22;5.68;;;2.40;;
12493;SDS011;8260;51.422;6.786;2022-10-16T08:43:58;6.78;;;3.08;;
12493;SDS011;8260;51.422;6.786;2022-10-16T08:46:35;6.55;;;3.03;;
12493;SDS011;8260;51.422;6.786;2022-10-16T08:49:05;6.57;;;2.80;;
12493;SDS011;8260;51.422;6.786;2022-10-16T08:51:37;4.68;;;3.00;;
12493;SDS011;8260;51.422;6.786;2022-10-16T08:54:14;8.27;;;2.80;;
12493;SDS011;8260;51.422;6.786;2022-10-16T08:56:44;3.95;;;2.83;;
12493;SDS011;8260;51.422;6.786;2022-10-16T08:59:12;3.60;;;2.33;;
12493;SDS011;8260;51.422;6.786;2022-10-16T09:01:43;4.60;;;2.63;;
12493;SDS011;8260;51.422;6.786;2022-10-16T09:04:38;4.85;;;2.30;;
12493;SDS011;8260;51.422;6.786;2022-10-16T09:07:14;2.80;;;2.40;;
12493;SDS011;8260;51.422;6.786;2022-10-16T09:09:49;4.93;;;2.38;;
12493;SDS011;8260;51.422;6.786;2022-10-16T09:12:19;3.53;;;2.28;;
12493;SDS011;8260;51.422;6.786;2022-10-16T09:14:55;4.47;;;2.28;;
12493;SDS011;8260;51.422;6.786;2022-10-16T09:17:28;2.58;;;2.38;;
12493;SDS011;8260;51.422;6.786;2022-10-16T09:20:02;1.83;;;1.55;;
12493;SDS011;8260;51.422;6.786;2022-10-16T09:22:34;2.72;;;1.92;;
12493;SDS011;8260;51.422;6.786;2022-10-16T09:25:09;4.57;;;1.65;;
12493;SDS011;8260;51.422;6.786;2022-10-16T09:27:38;4.43;;;2.20;;
12493;SDS011;8260;51.422;6.786;2022-10-16T09:30:10;1.70;;;1.50;;
12493;SDS011;8260;51.422;6.786;2022-10-16T09:32:39;2.05;;;1.58;;
12493;SDS011;8260;51.422;6.786;2022-10-16T09:35:11;1.35;;;1.25;;
12493;SDS011;8260;51.422;6.786;2022-10-16T09:37:43;3.03;;;1.63;;
12493;SDS011;8260;51.422;6.786;2022-10-16T09:40:13;2.88;;;1.52;;
12493;SDS011;8260;51.422;6.786;2022-10-16T09:42:41;5.60;;;1.75;;
12493;SDS011;8260;51.422;6.786;2022-10-16T09:45:19;3.35;;;1.70;;
12493;SDS011;8260;51.422;6.786;2022-10-16T09:47:48;4.00;;;1.90;;
12493;SDS011;8260;51.422;6.786;2022-10-16T09:50:24;2.38;;;1.65;;
12493;SDS011;8260;51.422;6.786;2022-10-16T09:53:08;2.95;;;1.60;;
12493;SDS011;8260;51.422;6.786;2022-10-16T09:55:47;1.88;;;1.40;;
12493;SDS011;8260;51.422;6.786;2022-10-16T09:58:16;2.88;;;1.30;;
12493;SDS011;8260;51.422;6.786;2022-10-16T10:00:48;3.10;;;1.80;;
12493;SDS011;8260;51.422;6.786;2022-10-16T10:03:23;1.65;;;1.35;;
12493;SDS011;8260;51.422;6.786;2022-10-16T10:05:56;5.53;;;1.35;;
12493;SDS011;8260;51.422;6.786;2022-10-16T10:08:29;3.38;;;1.58;;
12493;SDS011;8260;51.422;6.786;2022-10-16T10:10:57;2.40;;;1.30;;
12493;SDS011;8260;51.422;6.786;2022-10-16T10:13:25;3.80;;;1.30;;
12493;SDS011;8260;51.422;6.786;2022-10-16T10:15:54;1.60;;;1.48;;
12493;SDS011;8260;51.422;6.786;2022-10-16T10:18:23;1.88;;;1.17;;
12493;SDS011;8260;51.422;6.786;2022-10-16T10:20:58;3.50;;;1.80;;
12493;SDS011;8260;51.422;6.786;2022-10-16T10:23:28;2.97;;;1.65;;
12493;SDS011;8260;51.422;6.786;2022-10-16T10:26:00;5.13;;;1.55;;
12493;SDS011;8260;51.422;6.786;2022-10-16T10:28:41;4.63;;;1.52;;
12493;SDS011;8260;51.422;6.786;2022-10-16T10:31:14;2.67;;;1.35;;
12493;SDS011;8260;51.422;6.786;2022-10-16T10:33:46;2.33;;;1.40;;
12493;SDS011;8260;51.422;6.786;2022-10-16T10:36:19;3.00;;;1.25;;
12493;SDS011;8260;51.422;6.786;2022-10-16T10:38:52;2.50;;;1.20;;
12493;SDS011;8260;51.422;6.786;2022-10-16T10:41:36;1.70;;;1.02;;
12493;SDS011;8260;51.422;6.786;2022-10-16T10:44:11;3.85;;;1.15;;
12493;SDS011;8260;51.422;6.786;2022-10-16T10:46:45;1.95;;;1.58;;
12493;SDS011;8260;51.422;6.786;2022-10-16T10:49:20;1.63;;;1.30;;
12493;SDS011;8260;51.422;6.786;2022-10-16T10:51:55;3.72;;;1.45;;
12493;SDS011;8260;51.422;6.786;2022-10-16T10:54:32;2.47;;;1.08;;
12493;SDS011;8260;51.422;6.786;2022-10-16T10:57:06;2.17;;;1.20;;
12493;SDS011;8260;51.422;6.786;2022-10-16T10:59:41;1.55;;;1.35;;
12493;SDS011;8260;51.422;6.786;2022-10-16T11:02:13;2.65;;;1.50;;
12493;SDS011;8260;51.422;6.786;2022-10-16T11:07:28;2.72;;;1.15;;
12493;SDS011;8260;51.422;6.786;2022-10-16T11:10:02;1.30;;;1.20;;
12493;SDS011;8260;51.422;6.786;2022-10-16T11:12:31;4.05;;;1.38;;
12493;SDS011;8260;51.422;6.786;2022-10-16T11:15:04;3.00;;;1.30;;
12493;SDS011;8260;51.422;6.786;2022-10-16T11:17:35;6.75;;;1.63;;
12493;SDS011;8260;51.422;6.786;2022-10-16T11:20:12;4.35;;;1.40;;
12493;SDS011;8260;51.422;6.786;2022-10-16T11:22:42;4.40;;;1.40;;
12493;SDS011;8260;51.422;6.786;2022-10-16T11:25:14;1.75;;;1.30;;
12493;SDS011;8260;51.422;6.786;2022-10-16T11:27:47;3.67;;;1.30;;
12493;SDS011;8260;51.422;6.786;2022-10-16T11:30:18;3.13;;;1.40;;
12493;SDS011;8260;51.422;6.786;2022-10-16T11:32:50;3.13;;;1.52;;
12493;SDS011;8260;51.422;6.786;2022-10-16T11:35:22;3.38;;;1.50;;
12493;SDS011;8260;51.422;6.786;2022-10-16T11:37:52;4.38;;;1.55;;
12493;SDS011;8260;51.422;6.786;2022-10-16T11:40:23;1.77;;;1.42;;
12493;SDS011;8260;51.422;6.786;2022-10-16T11:42:54;2.22;;;1.40;;
12493;SDS011;8260;51.422;6.786;2022-10-16T11:45:27;4.60;;;1.92;;
12493;SDS011;8260;51.422;6.786;2022-10-16T11:48:00;1.80;;;1.10;;
12493;SDS011;8260;51.422;6.786;2022-10-16T11:50:31;3.60;;;1.17;;
12493;SDS011;8260;51.422;6.786;2022-10-16T11:53:03;3.10;;;1.48;;
12493;SDS011;8260;51.422;6.786;2022-10-16T11:55:35;2.80;;;1.42;;
12493;SDS011;8260;51.422;6.786;2022-10-16T11:58:12;4.45;;;2.08;;
12493;SDS011;8260;51.422;6.786;2022-10-16T12:00:43;3.40;;;1.48;;
12493;SDS011;8260;51.422;6.786;2022-10-16T12:03:16;4.55;;;1.55;;
12493;SDS011;8260;51.422;6.786;2022-10-16T12:06:01;5.15;;;1.92;;
12493;SDS011;8260;51.422;6.786;2022-10-16T12:08:34;4.40;;;2.13;;
12493;SDS011;8260;51.422;6.786;2022-10-16T12:11:08;5.80;;;2.35;;
12493;SDS011;8260;51.422;6.786;2022-10-16T12:13:37;4.35;;;1.63;;
12493;SDS011;8260;51.422;6.786;2022-10-16T12:16:08;3.38;;;1.48;;
12493;SDS011;8260;51.422;6.786;2022-10-16T12:18:48;4.07;;;2.05;;
12493;SDS011;8260;51.422;6.786;2022-10-16T12:21:17;2.88;;;1.77;;
12493;SDS011;8260;51.422;6.786;2022-10-16T12:23:47;4.68;;;1.48;;
12493;SDS011;8260;51.422;6.786;2022-10-16T12:26:24;3.13;;;1.55;;
12493;SDS011;8260;51.422;6.786;2022-10-16T12:28:53;2.70;;;1.30;;
12493;SDS011;8260;51.422;6.786;2022-10-16T12:31:22;1.35;;;1.20;;
12493;SDS011;8260;51.422;6.786;2022-10-16T12:33:56;1.95;;;1.30;;
12493;SDS011;8260;51.422;6.786;2022-10-16T12:36:27;2.80;;;1.80;;
12493;SDS011;8260;51.422;6.786;2022-10-16T12:38:56;3.00;;;1.45;;
12493;SDS011;8260;51.422;6.786;2022-10-16T12:41:26;2.97;;;1.33;;
12493;SDS011;8260;51.422;6.786;2022-10-16T12:43:55;3.28;;;1.60;;
12493;SDS011;8260;51.422;6.786;2022-10-16T12:46:33;2.72;;;1.20;;
12493;SDS011;8260;51.422;6.786;2022-10-16T12:49:07;3.33;;;1.23;;
12493;SDS011;8260;51.422;6.786;2022-10-16T12:51:36;2.72;;;1.20;;
12493;SDS011;8260;51.422;6.786;2022-10-16T12:54:10;3.30;;;1.63;;
12493;SDS011;8260;51.422;6.786;2022-10-16T12:56:43;4.55;;;1.60;;
12493;SDS011;8260;51.422;6.786;2022-10-16T12:59:16;3.35;;;1.60;;
12493;SDS011;8260;51.422;6.786;2022-10-16T13:01:53;5.00;;;1.63;;
12493;SDS011;8260;51.422;6.786;2022-10-16T13:07:12;3.08;;;1.40;;
12493;SDS011;8260;51.422;6.786;2022-10-16T13:09:47;4.85;;;2.15;;
12493;SDS011;8260;51.422;6.786;2022-10-16T13:12:23;1.90;;;1.35;;
12493;SDS011;8260;51.422;6.786;2022-10-16T13:17:39;3.70;;;1.50;;
12493;SDS011;8260;51.422;6.786;2022-10-16T13:20:11;2.92;;;1.20;;
12493;SDS011;8260;51.422;6.786;2022-10-16T13:22:42;5.32;;;2.13;;
12493;SDS011;8260;51.422;6.786;2022-10-16T13:25:19;4.90;;;1.80;;
12493;SDS011;8260;51.422;6.786;2022-10-16T13:27:53;3.90;;;1.98;;
12493;SDS011;8260;51.422;6.786;2022-10-16T13:30:23;4.85;;;2.03;;
12493;SDS011;8260;51.422;6.786;2022-10-16T13:32:57;3.88;;;1.33;;
12493;SDS011;8260;51.422;6.786;2022-10-16T13:35:27;2.60;;;1.30;;
12493;SDS011;8260;51.422;6.786;2022-10-16T13:38:05;3.17;;;1.60;;
12493;SDS011;8260;51.422;6.786;2022-10-16T13:40:47;2.25;;;1.38;;
12493;SDS011;8260;51.422;6.786;2022-10-16T13:43:17;1.98;;;1.38;;
12493;SDS011;8260;51.422;6.786;2022-10-16T13:45:53;2.85;;;1.40;;
12493;SDS011;8260;51.422;6.786;2022-10-16T13:48:22;4.50;;;1.50;;
12493;SDS011;8260;51.422;6.786;2022-10-16T13:51:03;3.20;;;1.60;;
12493;SDS011;8260;51.422;6.786;2022-10-16T13:53:33;2.78;;;1.58;;
12493;SDS011;8260;51.422;6.786;2022-10-16T13:56:10;4.85;;;1.58;;
12493;SDS011;8260;51.422;6.786;2022-10-16T13:58:41;4.63;;;1.40;;
12493;SDS011;8260;51.422;6.786;2022-10-16T14:01:15;1.83;;;1.38;;
12493;SDS011;8260;51.422;6.786;2022-10-16T14:03:44;1.80;;;1.20;;
12493;SDS011;8260;51.422;6.786;2022-10-16T14:06:14;6.55;;;1.52;;
12493;SDS011;8260;51.422;6.786;2022-10-16T14:08:44;4.45;;;1.45;;
12493;SDS011;8260;51.422;6.786;2022-10-16T14:11:19;2.63;;;1.13;;
12493;SDS011;8260;51.422;6.786;2022-10-16T14:13:50;2.17;;;1.30;;
12493;SDS011;8260;51.422;6.786;2022-10-16T14:16:20;1.55;;;1.10;;
12493;SDS011;8260;51.422;6.786;2022-10-16T14:18:51;1.77;;;1.00;;
12493;SDS011;8260;51.422;6.786;2022-10-16T14:21:21;1.35;;;1.00;;
12493;SDS011;8260;51.422;6.786;2022-10-16T14:23:49;2.55;;;1.13;;
12493;SDS011;8260;51.422;6.786;2022-10-16T14:26:19;3.80;;;1.55;;
12493;SDS011;8260;51.422;6.786;2022-10-16T14:29:00;2.90;;;1.10;;
12493;SDS011;8260;51.422;6.786;2022-10-16T14:31:29;4.13;;;1.45;;
12493;SDS011;8260;51.422;6.786;2022-10-16T14:33:58;2.55;;;1.05;;
12493;SDS011;8260;51.422;6.786;2022-10-16T14:36:27;3.90;;;1.20;;
12493;SDS011;8260;51.422;6.786;2022-10-16T14:38:57;2.10;;;1.10;;
12493;SDS011;8260;51.422;6.786;2022-10-16T14:41:27;4.35;;;1.75;;
12493;SDS011;8260;51.422;6.786;2022-10-16T14:44:00;6.97;;;1.88;;
12493;SDS011;8260;51.422;6.786;2022-10-16T14:46:30;5.07;;;2.08;;
12493;SDS011;8260;51.422;6.786;2022-10-16T14:49:00;3.35;;;1.90;;
12493;SDS011;8260;51.422;6.786;2022-10-16T14:51:29;2.88;;;1.67;;
12493;SDS011;8260;51.422;6.786;2022-10-16T14:53:57;2.75;;;1.60;;
12493;SDS011;8260;51.422;6.786;2022-10-16T14:56:28;1.92;;;1.40;;
12493;SDS011;8260;51.422;6.786;2022-10-16T14:59:00;4.35;;;1.65;;
12493;SDS011;8260;51.422;6.786;2022-10-16T15:01:28;2.65;;;1.90;;
12493;SDS011;8260;51.422;6.786;2022-10-16T15:03:57;5.13;;;2.30;;
12493;SDS011;8260;51.422;6.786;2022-10-16T15:06:25;1.70;;;1.60;;
12493;SDS011;8260;51.422;6.786;2022-10-16T15:08:53;4.65;;;1.75;;
12493;SDS011;8260;51.422;6.786;2022-10-16T15:11:22;4.30;;;1.85;;
12493;SDS011;8260;51.422;6.786;2022-10-16T15:13:50;5.93;;;1.63;;
12493;SDS011;8260;51.422;6.786;2022-10-16T15:16:20;2.70;;;1.60;;
12493;SDS011;8260;51.422;6.786;2022-10-16T15:18:48;4.15;;;1.40;;
12493;SDS011;8260;51.422;6.786;2022-10-16T15:21:20;1.70;;;1.60;;
12493;SDS011;8260;51.422;6.786;2022-10-16T15:23:50;5.65;;;1.80;;
12493;SDS011;8260;51.422;6.786;2022-10-16T15:26:18;2.75;;;1.63;;
12493;SDS011;8260;51.422;6.786;2022-10-16T15:28:46;5.97;;;2.75;;
12493;SDS011;8260;51.422;6.786;2022-10-16T15:31:15;4.47;;;2.20;;